Terminal Aerodrome Forecast
Issued by NWS Sioux Falls, SD

Home | Current Version | Previous Version | Graphics & Text | Print | Product List | Glossary On
Versions: 1 2 3 4 5 6 7 8 9 10 11 12
000
FTUS43 KFSD 212320
TAFSUX
TAF
KSUX 212320Z 2200/2224 16013KT P6SM FEW040
     FM220200 15013KT P6SM SKC WS017/18050KT
     FM221000 16012KT P6SM FEW120
     FM221400 17015G23KT P6SM SCT120
     FM221700 17019G29KT P6SM SCT120=

USA.gov is the U.S. government's official web portal to all federal, state and local government web resources and services.